AMQ132 EPKT-LGRP
Flight info
| Callsign | AMQ132 |
|---|---|
| Flight time | N/A |
| Altitude | 23000 |
| Route | REGTO T195 RAZEC N133 KEKED/N0451F350 DCT PERIT DCT NARKA DCT LOMOS DCT NIKTI DCT MES UN139 LURUS UL995 CODIC |
| Aircraft | A321/M-SDE3FGHIRWY/LB1 |
Departure
| Time | 2026-05-01 07:56 |
|---|---|
| Airport | Katowice Wojciech Korfanty International Airport (EPKT) |
Arrival
| Time | N/A |
|---|---|
| Airport | Rhodes International Airport "Diagoras" (LGRP) |
| Time | Latitude | Longitude | Altitude | Speed | Heading |
|---|---|---|---|---|---|
| 2026-05-01 07:34 | 50.47168 | 19.07079 | 1000 ft | 0 kts | 180° |
| 2026-05-01 07:46 | 50.47177 | 19.07078 | 1001 ft | 4 kts | 180° |
| 2026-05-01 07:47 | 50.47203 | 19.07078 | 998 ft | 4 kts | 169° |
| 2026-05-01 07:47 | 50.47226 | 19.07063 | 1001 ft | 4 kts | 131° |
| 2026-05-01 07:47 | 50.47236 | 19.07033 | 998 ft | 1 kts | 90° |
| 2026-05-01 07:47 | 50.47236 | 19.07032 | 998 ft | 0 kts | 90° |
| 2026-05-01 07:49 | 50.47235 | 19.07077 | 998 ft | 8 kts | 90° |
| 2026-05-01 07:49 | 50.47235 | 19.07205 | 1003 ft | 15 kts | 90° |
| 2026-05-01 07:50 | 50.47235 | 19.07386 | 1003 ft | 16 kts | 90° |
| 2026-05-01 07:50 | 50.47234 | 19.07708 | 1001 ft | 13 kts | 90° |
| 2026-05-01 07:50 | 50.47233 | 19.07835 | 1003 ft | 10 kts | 90° |
| 2026-05-01 07:51 | 50.47233 | 19.07995 | 1003 ft | 21 kts | 90° |
| 2026-05-01 07:51 | 50.47233 | 19.08231 | 1003 ft | 21 kts | 90° |
| 2026-05-01 07:51 | 50.47232 | 19.08453 | 1004 ft | 20 kts | 90° |
| 2026-05-01 07:52 | 50.47231 | 19.08855 | 1004 ft | 17 kts | 90° |
| 2026-05-01 07:52 | 50.47231 | 19.09055 | 1002 ft | 20 kts | 89° |
| 2026-05-01 07:52 | 50.47232 | 19.09260 | 1000 ft | 18 kts | 90° |
| 2026-05-01 07:53 | 50.47228 | 19.09620 | 1003 ft | 15 kts | 90° |
| 2026-05-01 07:53 | 50.47228 | 19.09782 | 1000 ft | 17 kts | 90° |
| 2026-05-01 07:53 | 50.47232 | 19.09990 | 1004 ft | 17 kts | 81° |
| 2026-05-01 07:53 | 50.47290 | 19.10136 | 1002 ft | 15 kts | 51° |
| 2026-05-01 07:54 | 50.47430 | 19.10410 | 999 ft | 16 kts | 48° |
| 2026-05-01 07:55 | 50.47595 | 19.09991 | 998 ft | 60 kts | 270° |
| 2026-05-01 07:55 | 50.47601 | 19.07431 | 1030 ft | 163 kts | 270° |
| 2026-05-01 07:56 | 50.47593 | 19.01955 | 2592 ft | 188 kts | 273° |
| 2026-05-01 07:56 | 50.47614 | 18.97424 | 3003 ft | 228 kts | 271° |
| 2026-05-01 07:57 | 50.47168 | 18.94992 | 3437 ft | 243 kts | 235° |
| 2026-05-01 07:57 | 50.43945 | 18.92905 | 4457 ft | 274 kts | 182° |
| 2026-05-01 07:58 | 50.40111 | 18.93214 | 5886 ft | 284 kts | 175° |
| 2026-05-01 07:58 | 50.36098 | 18.93617 | 7240 ft | 294 kts | 176° |
| 2026-05-01 07:59 | 50.31977 | 18.94122 | 8535 ft | 300 kts | 161° |
| 2026-05-01 07:59 | 50.28512 | 18.97472 | 9872 ft | 293 kts | 125° |
| 2026-05-01 08:00 | 50.24705 | 19.09493 | 10967 ft | 345 kts | 109° |
| 2026-05-01 08:01 | 50.21561 | 19.20109 | 12298 ft | 366 kts | 110° |
| 2026-05-01 08:01 | 50.20482 | 19.23727 | 12837 ft | 369 kts | 110° |
| 2026-05-01 08:01 | 50.19394 | 19.27371 | 13368 ft | 372 kts | 110° |
| 2026-05-01 08:02 | 50.16846 | 19.34531 | 14381 ft | 381 kts | 115° |
| 2026-05-01 08:02 | 50.15494 | 19.38104 | 14862 ft | 383 kts | 115° |
| 2026-05-01 08:03 | 50.12765 | 19.45294 | 15832 ft | 387 kts | 115° |
| 2026-05-01 08:03 | 50.11392 | 19.48903 | 16313 ft | 388 kts | 115° |
| 2026-05-01 08:03 | 50.08619 | 19.56156 | 17246 ft | 392 kts | 116° |
| 2026-05-01 08:04 | 50.04809 | 19.62433 | 18044 ft | 412 kts | 140° |
| 2026-05-01 08:04 | 49.99435 | 19.65937 | 18783 ft | 431 kts | 163° |
| 2026-05-01 08:05 | 49.93547 | 19.67936 | 19424 ft | 434 kts | 160° |
| 2026-05-01 08:05 | 49.90724 | 19.69497 | 19742 ft | 429 kts | 149° |
| 2026-05-01 08:05 | 49.88137 | 19.71745 | 20079 ft | 423 kts | 139° |
| 2026-05-01 08:06 | 49.83933 | 19.77894 | 20781 ft | 412 kts | 120° |
| 2026-05-01 08:06 | 49.80506 | 19.85013 | 21578 ft | 414 kts | 119° |
| 2026-05-01 08:07 | 49.77011 | 19.92189 | 22311 ft | 419 kts | 119° |
| 2026-05-01 08:07 | 49.73478 | 19.99410 | 23067 ft | 423 kts | 119° |
| 2026-05-01 08:08 | 49.71701 | 20.03036 | 23415 ft | 424 kts | 119° |
| 2026-05-01 08:08 | 49.68133 | 20.10340 | 24064 ft | 428 kts | 119° |
| 2026-05-01 08:09 | 49.65139 | 20.16449 | 24517 ft | 430 kts | 119° |
| 2026-05-01 08:09 | 49.63330 | 20.20138 | 24836 ft | 432 kts | 118° |
| 2026-05-01 08:09 | 49.61514 | 20.23835 | 25115 ft | 433 kts | 119° |
| 2026-05-01 08:10 | 49.57859 | 20.31265 | 25675 ft | 437 kts | 119° |
| 2026-05-01 08:10 | 49.54168 | 20.38742 | 26269 ft | 440 kts | 119° |
| 2026-05-01 08:11 | 49.50438 | 20.46250 | 26811 ft | 443 kts | 119° |
| 2026-05-01 08:11 | 49.46686 | 20.53793 | 27338 ft | 445 kts | 119° |
| 2026-05-01 08:12 | 49.42915 | 20.61363 | 27773 ft | 448 kts | 119° |
| 2026-05-01 08:12 | 49.41013 | 20.65159 | 27990 ft | 450 kts | 120° |
| 2026-05-01 08:12 | 49.36584 | 20.72177 | 28372 ft | 461 kts | 127° |
| 2026-05-01 08:13 | 49.34286 | 20.75607 | 28633 ft | 461 kts | 127° |
| 2026-05-01 08:13 | 49.31988 | 20.79027 | 28905 ft | 460 kts | 127° |
| 2026-05-01 08:13 | 49.27407 | 20.85854 | 29401 ft | 458 kts | 127° |
| 2026-05-01 08:14 | 49.25124 | 20.89256 | 29691 ft | 458 kts | 126° |
| 2026-05-01 08:14 | 49.22844 | 20.92647 | 29951 ft | 457 kts | 126° |
| 2026-05-01 08:14 | 49.20567 | 20.96031 | 30181 ft | 456 kts | 126° |
| 2026-05-01 08:14 | 49.18259 | 20.99457 | 30400 ft | 456 kts | 126° |
| 2026-05-01 08:15 | 49.16019 | 21.02781 | 30595 ft | 455 kts | 127° |
| 2026-05-01 08:15 | 49.10728 | 21.08555 | 30972 ft | 478 kts | 144° |
| 2026-05-01 08:15 | 49.07615 | 21.10478 | 31165 ft | 489 kts | 154° |
| 2026-05-01 08:16 | 49.04285 | 21.11768 | 31375 ft | 494 kts | 158° |
| 2026-05-01 08:16 | 49.00942 | 21.12973 | 31596 ft | 493 kts | 158° |
| 2026-05-01 08:16 | 48.97604 | 21.14185 | 31825 ft | 494 kts | 158° |
| 2026-05-01 08:16 | 48.94306 | 21.15389 | 31998 ft | 494 kts | 158° |
| 2026-05-01 08:17 | 48.90919 | 21.16628 | 32213 ft | 494 kts | 158° |
| 2026-05-01 08:17 | 48.87582 | 21.17846 | 32475 ft | 493 kts | 157° |
| 2026-05-01 08:17 | 48.84251 | 21.19060 | 32717 ft | 492 kts | 157° |
| 2026-05-01 08:17 | 48.80925 | 21.20267 | 32957 ft | 492 kts | 157° |
| 2026-05-01 08:18 | 48.77600 | 21.21470 | 33198 ft | 491 kts | 157° |
| 2026-05-01 08:18 | 48.70962 | 21.23861 | 33643 ft | 490 kts | 157° |
| 2026-05-01 08:19 | 48.64342 | 21.26103 | 34086 ft | 492 kts | 160° |
| 2026-05-01 08:19 | 48.60977 | 21.27040 | 34334 ft | 492 kts | 161° |
| 2026-05-01 08:19 | 48.57599 | 21.27890 | 34548 ft | 493 kts | 162° |
| 2026-05-01 08:19 | 48.54209 | 21.28711 | 34678 ft | 493 kts | 162° |
| 2026-05-01 08:20 | 48.50882 | 21.29773 | 34799 ft | 484 kts | 154° |
| 2026-05-01 08:20 | 48.47655 | 21.31194 | 34934 ft | 483 kts | 154° |
| 2026-05-01 08:20 | 48.44441 | 21.32653 | 35090 ft | 482 kts | 154° |
| 2026-05-01 08:20 | 48.41234 | 21.34135 | 35241 ft | 482 kts | 154° |
| 2026-05-01 08:21 | 48.38031 | 21.35622 | 35348 ft | 482 kts | 154° |
| 2026-05-01 08:21 | 48.31637 | 21.38569 | 35365 ft | 480 kts | 154° |
| 2026-05-01 08:22 | 48.25248 | 21.41467 | 35363 ft | 480 kts | 155° |
| 2026-05-01 08:22 | 48.18849 | 21.44347 | 35369 ft | 480 kts | 155° |
| 2026-05-01 08:23 | 48.12460 | 21.47216 | 35367 ft | 479 kts | 155° |
| 2026-05-01 08:23 | 48.06081 | 21.50093 | 35369 ft | 479 kts | 155° |
| 2026-05-01 08:24 | 47.99705 | 21.52970 | 35368 ft | 479 kts | 155° |
| 2026-05-01 08:24 | 47.93327 | 21.55830 | 35368 ft | 479 kts | 155° |
| 2026-05-01 08:25 | 47.86945 | 21.58668 | 35390 ft | 479 kts | 156° |
| 2026-05-01 08:25 | 47.80560 | 21.61491 | 35407 ft | 479 kts | 156° |
| 2026-05-01 08:26 | 47.74180 | 21.64324 | 35398 ft | 478 kts | 156° |
| 2026-05-01 08:26 | 47.67760 | 21.67179 | 35394 ft | 478 kts | 156° |
| 2026-05-01 08:27 | 47.61386 | 21.70001 | 35391 ft | 478 kts | 157° |
| 2026-05-01 08:27 | 47.55019 | 21.72808 | 35388 ft | 478 kts | 157° |